Time;durP1;ratioP1;P1;durP2;ratioP2;P2;SDS_P1;SDS_P2;PMS_P1;PMS_P2;Temp;Humidity;BMP_temperature;BMP_pressure;BME280_temperature;BME280_humidity;BME280_pressure;Samples;Min_cycle;Max_cycle;Signal;HPM_P1;HPM_P2
2024/04/01 00:01:00;;;;;;;20.40;17.53;;;11.60;99.90;;;;;;4881449;29;20450;-69
2024/04/01 00:03:28;;;;;;;22.80;18.87;;;11.60;99.90;;;;;;4881842;29;20861;-69
2024/04/01 00:05:55;;;;;;;24.17;19.30;;;11.60;99.90;;;;;;4881644;29;20450;-69
2024/04/01 00:08:22;;;;;;;19.93;17.87;;;11.60;99.90;;;;;;4881217;29;20445;-69
2024/04/01 00:10:49;;;;;;;21.00;17.73;;;11.60;99.90;;;;;;4881718;29;20553;-69
2024/04/01 00:13:17;;;;;;;20.47;18.30;;;11.60;99.90;;;;;;4881378;29;20481;-69
2024/04/01 00:15:44;;;;;;;22.87;19.17;;;11.60;99.90;;;;;;4881101;29;20480;-69
2024/04/01 00:18:13;;;;;;;21.83;18.83;;;11.60;99.90;;;;;;4881596;29;20454;-69
2024/04/01 00:20:39;;;;;;;22.07;17.83;;;11.60;99.90;;;;;;4881070;29;20454;-69
2024/04/01 00:23:07;;;;;;;22.47;18.20;;;11.50;99.90;;;;;;4881489;29;21064;-69
2024/04/01 00:25:33;;;;;;;19.40;17.20;;;11.50;99.90;;;;;;4880265;29;20460;-70
2024/04/01 00:28:00;;;;;;;19.10;16.60;;;11.60;99.90;;;;;;4880946;29;20206;-70
2024/04/01 00:30:28;;;;;;;18.63;16.73;;;11.60;99.90;;;;;;4880803;29;20963;-70
2024/04/01 00:32:55;;;;;;;19.43;16.27;;;11.60;99.90;;;;;;4881467;29;20470;-70
2024/04/01 00:35:23;;;;;;;20.40;17.07;;;11.50;99.90;;;;;;4880682;29;20526;-69
2024/04/01 00:37:50;;;;;;;18.90;15.80;;;11.50;99.90;;;;;;4880456;29;20458;-70
2024/04/01 00:40:17;;;;;;;23.23;16.20;;;11.50;99.90;;;;;;4881117;29;20543;-70
2024/04/01 00:42:45;;;;;;;16.73;14.97;;;11.40;99.90;;;;;;4880484;29;20486;-70
2024/04/01 00:45:13;;;;;;;21.23;15.80;;;11.40;99.90;;;;;;4880426;29;20940;-69
2024/04/01 00:47:41;;;;;;;17.93;15.10;;;11.40;99.90;;;;;;4880325;29;20549;-70
2024/04/01 00:50:08;;;;;;;17.20;15.50;;;11.40;99.90;;;;;;4880354;29;20944;-70
2024/04/01 00:52:37;;;;;;;21.00;15.40;;;11.30;99.90;;;;;;4880414;29;20473;-69
2024/04/01 00:55:04;;;;;;;16.83;14.80;;;11.30;99.90;;;;;;4880454;29;20454;-69
2024/04/01 00:57:32;;;;;;;19.60;15.53;;;11.30;99.90;;;;;;4879865;29;20454;-70
2024/04/01 00:59:58;;;;;;;17.90;16.00;;;11.30;99.90;;;;;;4880631;29;20454;-69
2024/04/01 01:02:29;;;;;;;18.17;14.83;;;11.20;99.90;;;;;;4880229;29;20542;-70
2024/04/01 01:04:57;;;;;;;19.13;14.70;;;11.20;99.90;;;;;;4880337;29;20578;-69
2024/04/01 01:07:24;;;;;;;16.53;13.97;;;11.10;99.90;;;;;;4879988;29;20461;-69
2024/04/01 01:09:52;;;;;;;17.20;15.43;;;11.10;99.90;;;;;;4879969;29;20457;-69
2024/04/01 01:12:20;;;;;;;17.90;15.77;;;11.10;99.90;;;;;;4879873;29;20473;-70
2024/04/01 01:14:48;;;;;;;19.27;15.17;;;11.10;99.90;;;;;;4879968;29;20462;-70
2024/04/01 01:17:16;;;;;;;18.07;16.03;;;11.10;99.90;;;;;;4880105;29;20465;-69
2024/04/01 01:19:43;;;;;;;22.43;17.17;;;11.00;99.90;;;;;;4880179;29;20458;-69
2024/04/01 01:22:18;;;;;;;18.10;16.20;;;11.00;99.90;;;;;;4879686;29;20477;-69
2024/04/01 01:24:44;;;;;;;18.10;15.83;;;11.00;99.90;;;;;;4880018;29;20517;-70
2024/04/01 01:27:12;;;;;;;17.37;15.57;;;11.00;99.90;;;;;;4879671;29;20458;-70
2024/04/01 01:29:38;;;;;;;19.03;15.63;;;10.90;99.90;;;;;;4879577;29;20446;-69
2024/04/01 01:32:06;;;;;;;17.77;15.50;;;10.90;99.90;;;;;;4879418;29;20466;-69
2024/04/01 01:34:33;;;;;;;26.70;17.07;;;10.90;99.90;;;;;;4879392;29;20457;-69
2024/04/01 01:37:00;;;;;;;17.70;15.00;;;10.90;99.90;;;;;;4879382;29;20491;-69
2024/04/01 01:39:28;;;;;;;20.63;16.90;;;10.90;99.90;;;;;;4879412;29;20456;-69
2024/04/01 01:41:55;;;;;;;17.97;16.20;;;10.80;99.90;;;;;;4879629;29;20486;-69
2024/04/01 01:44:21;;;;;;;16.90;14.33;;;10.80;99.90;;;;;;4879391;29;20550;-69
2024/04/01 01:46:48;;;;;;;17.63;15.80;;;10.80;99.90;;;;;;4879313;29;20450;-69
2024/04/01 01:49:15;;;;;;;19.60;16.33;;;10.80;99.90;;;;;;4879209;29;20545;-69
2024/04/01 01:51:42;;;;;;;18.03;16.00;;;10.80;99.90;;;;;;4879492;29;20470;-69
2024/04/01 01:54:09;;;;;;;17.30;15.60;;;10.70;99.90;;;;;;4879494;29;20457;-69
2024/04/01 01:56:37;;;;;;;19.27;16.90;;;10.70;99.90;;;;;;4879173;29;20454;-69
2024/04/01 01:59:03;;;;;;;18.80;17.10;;;10.70;99.90;;;;;;4879493;29;20515;-69
2024/04/01 02:01:31;;;;;;;19.80;18.00;;;10.70;99.90;;;;;;4878961;29;20478;-69
2024/04/01 02:03:58;;;;;;;18.27;16.50;;;10.70;99.90;;;;;;4879270;29;20451;-69
2024/04/01 02:06:25;;;;;;;18.37;16.70;;;10.60;99.90;;;;;;4878934;29;20454;-70
2024/04/01 02:08:51;;;;;;;18.67;16.77;;;10.60;99.90;;;;;;4878304;29;20446;-69
2024/04/01 02:11:19;;;;;;;20.63;17.47;;;10.60;99.90;;;;;;4878942;29;20473;-69
2024/04/01 02:13:46;;;;;;;18.10;16.30;;;10.60;99.90;;;;;;4878906;29;20454;-69
2024/04/01 02:16:13;;;;;;;21.20;16.10;;;10.60;99.90;;;;;;4878848;29;20538;-69
2024/04/01 02:18:40;;;;;;;20.30;17.17;;;10.60;99.90;;;;;;4879206;29;20450;-69
2024/04/01 02:21:08;;;;;;;19.03;17.20;;;10.50;99.90;;;;;;4878801;29;20479;-69
2024/04/01 02:23:34;;;;;;;22.53;18.17;;;10.50;99.90;;;;;;4878591;29;20845;-69
2024/04/01 02:26:02;;;;;;;20.50;18.70;;;10.50;99.90;;;;;;4879138;29;20446;-69
2024/04/01 02:28:29;;;;;;;19.33;17.43;;;10.50;99.90;;;;;;4878711;29;20458;-69
2024/04/01 02:30:58;;;;;;;18.57;16.87;;;10.50;99.90;;;;;;4894028;29;20514;-70
2024/04/01 02:33:25;;;;;;;21.47;19.47;;;10.50;99.90;;;;;;4878647;29;20473;-69
2024/04/01 02:35:53;;;;;;;21.20;19.10;;;10.50;99.90;;;;;;4878793;29;20458;-69
2024/04/01 02:38:20;;;;;;;19.27;17.53;;;10.50;99.90;;;;;;4878722;29;20815;-69
2024/04/01 02:40:48;;;;;;;21.93;19.83;;;10.50;99.90;;;;;;4862919;29;20450;-69
2024/04/01 02:43:14;;;;;;;21.10;19.10;;;10.40;99.90;;;;;;4878616;29;20834;-69
2024/04/01 02:45:42;;;;;;;21.67;19.50;;;10.40;99.90;;;;;;4878977;29;20450;-69
2024/04/01 02:48:10;;;;;;;21.13;18.80;;;10.40;99.90;;;;;;4878471;29;20453;-69
2024/04/01 02:50:37;;;;;;;23.67;21.27;;;10.40;99.90;;;;;;4893995;29;20474;-69
2024/04/01 02:53:04;;;;;;;21.40;19.17;;;10.40;99.90;;;;;;4862849;29;20487;-69
2024/04/01 02:55:32;;;;;;;22.80;20.57;;;10.40;99.90;;;;;;4878266;29;20454;-69
2024/04/01 02:57:58;;;;;;;21.67;19.77;;;10.40;99.90;;;;;;4878672;29;20449;-69
2024/04/01 03:00:26;;;;;;;22.43;20.40;;;10.40;99.90;;;;;;4878698;29;20547;-69
2024/04/01 03:02:53;;;;;;;22.07;20.17;;;10.40;99.90;;;;;;4862761;29;20533;-70
2024/04/01 03:05:21;;;;;;;24.20;21.90;;;10.40;99.90;;;;;;4878456;29;20450;-69
2024/04/01 03:07:50;;;;;;;23.70;21.40;;;10.40;99.90;;;;;;4882561;29;20551;-69
2024/04/01 03:10:18;;;;;;;24.60;22.57;;;10.40;99.90;;;;;;4879722;29;20474;-69
2024/04/01 03:12:45;;;;;;;23.90;21.50;;;10.40;99.90;;;;;;4879799;29;20466;-69
2024/04/01 03:15:16;;;;;;;22.50;20.50;;;10.30;99.90;;;;;;4879472;29;20833;-69
2024/04/01 03:17:43;;;;;;;24.20;21.77;;;10.30;99.90;;;;;;4878901;29;20453;-70
2024/04/01 03:20:12;;;;;;;23.57;21.40;;;10.30;99.90;;;;;;4881527;29;20446;-69
2024/04/01 03:22:40;;;;;;;23.60;21.40;;;10.30;99.90;;;;;;4882106;29;20482;-69
2024/04/01 03:25:07;;;;;;;22.57;20.37;;;10.30;99.90;;;;;;4882022;29;20442;-69
2024/04/01 03:27:34;;;;;;;23.47;21.27;;;10.30;99.90;;;;;;4866717;29;20866;-69
2024/04/01 03:30:01;;;;;;;23.60;21.50;;;10.30;99.90;;;;;;4881878;29;20453;-69
2024/04/01 03:32:27;;;;;;;22.67;20.47;;;10.30;99.90;;;;;;4882114;29;20505;-70
2024/04/01 03:34:55;;;;;;;25.17;22.70;;;10.30;99.90;;;;;;4881937;29;20842;-69
2024/04/01 03:37:22;;;;;;;24.67;22.40;;;10.30;99.90;;;;;;4881777;29;20830;-69
2024/04/01 03:39:50;;;;;;;26.03;23.43;;;10.30;99.90;;;;;;4882085;29;20458;-69
2024/04/01 03:42:17;;;;;;;26.20;23.70;;;10.30;99.90;;;;;;4881819;29;20517;-69
2024/04/01 03:44:44;;;;;;;27.47;25.07;;;10.30;99.90;;;;;;4882228;29;20453;-69
2024/04/01 03:47:11;;;;;;;28.20;25.30;;;10.30;99.90;;;;;;4881534;29;20492;-69
2024/04/01 03:49:38;;;;;;;28.60;25.97;;;10.30;99.90;;;;;;4881791;29;20502;-69
2024/04/01 03:52:05;;;;;;;27.70;24.90;;;10.30;99.90;;;;;;4881454;29;20473;-69
2024/04/01 03:54:33;;;;;;;28.37;25.57;;;10.30;99.90;;;;;;4881500;29;20485;-69
2024/04/01 03:57:01;;;;;;;28.37;25.53;;;10.30;99.90;;;;;;4881458;29;20813;-69
2024/04/01 03:59:28;;;;;;;26.17;23.77;;;10.30;99.90;;;;;;4881929;29;20453;-69
2024/04/01 04:01:54;;;;;;;26.40;23.97;;;10.30;99.90;;;;;;4881549;29;20481;-69
2024/04/01 04:04:22;;;;;;;27.63;24.83;;;10.30;99.90;;;;;;4881574;29;20461;-69
2024/04/01 04:06:48;;;;;;;27.10;24.60;;;10.30;99.90;;;;;;4881480;29;20454;-69
2024/04/01 04:09:16;;;;;;;27.30;24.70;;;10.30;99.90;;;;;;4881220;29;20856;-69
2024/04/01 04:11:48;;;;;;;28.17;25.13;;;10.30;99.90;;;;;;4881324;29;20481;-70
2024/04/01 04:14:19;;;;;;;25.50;23.00;;;10.30;99.90;;;;;;4881309;29;20431;-70
2024/04/01 04:16:46;;;;;;;27.97;25.17;;;10.30;99.90;;;;;;4881520;29;20863;-69
2024/04/01 04:19:15;;;;;;;27.50;24.80;;;10.30;99.90;;;;;;4896740;29;20511;-69
2024/04/01 04:21:41;;;;;;;23.70;21.50;;;10.30;99.90;;;;;;4881134;29;20473;-69
2024/04/01 04:24:10;;;;;;;26.17;23.87;;;10.30;99.90;;;;;;4880853;29;20473;-69
2024/04/01 04:26:36;;;;;;;25.60;23.13;;;10.30;99.90;;;;;;4880966;29;20450;-70
2024/04/01 04:29:03;;;;;;;26.27;23.87;;;10.30;99.90;;;;;;4880900;29;20457;-69
2024/04/01 04:31:31;;;;;;;26.50;24.10;;;10.30;99.90;;;;;;4880190;29;20493;-69
2024/04/01 04:33:58;;;;;;;25.57;23.17;;;10.30;99.90;;;;;;4880976;29;20941;-69
2024/04/01 04:36:25;;;;;;;26.50;24.00;;;10.30;99.90;;;;;;4880950;29;20454;-69
2024/04/01 04:38:53;;;;;;;26.23;23.70;;;10.30;99.90;;;;;;4880888;29;20876;-69
2024/04/01 04:41:22;;;;;;;26.20;23.77;;;10.20;99.90;;;;;;4880652;29;20887;-69
2024/04/01 04:43:49;;;;;;;27.50;24.90;;;10.20;99.90;;;;;;4880627;29;20478;-69
2024/04/01 04:46:15;;;;;;;28.20;25.50;;;10.20;99.90;;;;;;4880560;29;20855;-69
2024/04/01 04:48:46;;;;;;;29.43;26.50;;;10.20;99.90;;;;;;4880499;29;20963;-69
2024/04/01 04:51:12;;;;;;;30.90;28.10;;;10.20;99.90;;;;;;4880830;29;20470;-69
2024/04/01 04:53:39;;;;;;;30.80;27.87;;;10.20;99.90;;;;;;4881158;29;20785;-69
2024/04/01 04:56:07;;;;;;;29.17;26.50;;;10.20;99.90;;;;;;4880425;29;20462;-69
2024/04/01 04:58:35;;;;;;;28.27;25.77;;;10.20;99.90;;;;;;4880454;29;20794;-69
2024/04/01 05:01:05;;;;;;;30.13;27.40;;;10.20;99.90;;;;;;4880755;29;20509;-69
2024/04/01 05:03:31;;;;;;;28.80;26.33;;;10.20;99.90;;;;;;4880199;29;20474;-69
2024/04/01 05:06:01;;;;;;;29.30;26.70;;;10.20;99.90;;;;;;4895824;29;20831;-69
2024/04/01 05:08:27;;;;;;;32.73;29.80;;;10.20;99.90;;;;;;4895958;29;20454;-69
2024/04/01 05:10:57;;;;;;;31.90;28.70;;;10.20;99.90;;;;;;4880275;29;20510;-69
2024/04/01 05:13:23;;;;;;;32.30;29.50;;;10.20;99.90;;;;;;4880305;29;20454;-69
2024/04/01 05:15:50;;;;;;;32.47;29.37;;;10.20;99.90;;;;;;4895658;29;21015;-69
2024/04/01 05:18:17;;;;;;;30.90;28.23;;;10.20;99.90;;;;;;4880496;29;20929;-69
2024/04/01 05:20:46;;;;;;;33.10;29.00;;;10.20;99.90;;;;;;4880046;29;20971;-69
2024/04/01 05:23:13;;;;;;;31.23;28.60;;;10.20;99.90;;;;;;4879863;29;20474;-69
2024/04/01 05:25:40;;;;;;;30.60;27.90;;;10.20;99.90;;;;;;4879826;29;20450;-69
2024/04/01 05:28:07;;;;;;;33.50;30.40;;;10.20;99.90;;;;;;4879758;29;20473;-69
2024/04/01 05:30:34;;;;;;;31.50;28.60;;;10.20;99.90;;;;;;4879748;29;20461;-69
2024/04/01 05:33:00;;;;;;;29.77;26.97;;;10.20;99.90;;;;;;4879659;29;20541;-69
2024/04/01 05:35:32;;;;;;;29.00;26.47;;;10.20;99.90;;;;;;4879630;29;20446;-69
2024/04/01 05:37:59;;;;;;;29.17;26.57;;;10.20;99.90;;;;;;4879936;29;20953;-69
2024/04/01 05:40:27;;;;;;;29.67;27.07;;;10.20;99.90;;;;;;4879874;29;20446;-69
2024/04/01 05:42:54;;;;;;;30.83;28.00;;;10.20;99.90;;;;;;4879049;29;20485;-70
2024/04/01 05:45:21;;;;;;;29.67;26.60;;;10.20;99.90;;;;;;4879497;29;20454;-69
2024/04/01 05:47:48;;;;;;;27.97;25.47;;;10.20;99.90;;;;;;4879702;29;20941;-69
2024/04/01 05:50:17;;;;;;;28.27;25.73;;;10.20;99.90;;;;;;4879423;29;21008;-69
2024/04/01 05:52:44;;;;;;;28.67;26.10;;;10.20;99.90;;;;;;4879247;29;20474;-69
2024/04/01 05:55:11;;;;;;;28.13;25.57;;;10.20;99.90;;;;;;4879857;29;20446;-69
2024/04/01 05:57:39;;;;;;;27.80;25.20;;;10.20;99.90;;;;;;4879288;29;20944;-69
2024/04/01 06:00:09;;;;;;;29.00;26.43;;;10.20;99.90;;;;;;4879415;29;20870;-69
2024/04/01 06:02:38;;;;;;;27.07;24.67;;;10.20;99.90;;;;;;4879234;29;20479;-69
2024/04/01 06:05:06;;;;;;;30.97;28.17;;;10.30;99.90;;;;;;4879874;29;20454;-69
2024/04/01 06:07:33;;;;;;;29.40;26.80;;;10.30;99.90;;;;;;4896403;29;20505;-69
2024/04/01 06:10:01;;;;;;;28.70;26.30;;;10.30;99.90;;;;;;4868640;29;20957;-69
2024/04/01 06:12:27;;;;;;;27.73;25.27;;;10.30;99.90;;;;;;4882040;29;20480;-69
2024/04/01 06:14:56;;;;;;;28.37;25.77;;;10.30;99.90;;;;;;4880516;29;20461;-69
2024/04/01 06:17:22;;;;;;;29.70;27.03;;;10.30;99.90;;;;;;4879659;29;20458;-69
2024/04/01 06:19:49;;;;;;;28.03;25.57;;;10.30;99.90;;;;;;4879205;29;20992;-69
2024/04/01 06:22:16;;;;;;;29.20;26.70;;;10.30;99.90;;;;;;4879142;29;20477;-69
2024/04/01 06:24:43;;;;;;;30.37;27.67;;;10.30;99.90;;;;;;4878962;29;20482;-69
2024/04/01 06:27:09;;;;;;;31.87;29.10;;;10.30;99.90;;;;;;4879026;29;20496;-69
2024/04/01 06:29:38;;;;;;;31.50;28.90;;;10.30;99.90;;;;;;4879356;29;20458;-69
2024/04/01 06:32:06;;;;;;;30.75;28.17;;;10.30;99.90;;;;;;4878403;29;20449;-69
2024/04/01 06:34:33;;;;;;;31.97;29.17;;;10.30;99.90;;;;;;4878656;29;20194;-69
2024/04/01 06:36:59;;;;;;;31.67;28.50;;;10.40;99.90;;;;;;4878957;29;20792;-69
2024/04/01 06:39:27;;;;;;;36.70;33.20;;;10.40;99.90;;;;;;4878452;29;20460;-70
2024/04/01 06:41:54;;;;;;;38.17;34.87;;;10.40;99.90;;;;;;4878506;29;20481;-69
2024/04/01 06:44:22;;;;;;;37.37;33.90;;;10.40;99.90;;;;;;4878498;29;20478;-69
2024/04/01 06:46:49;;;;;;;38.83;35.13;;;10.40;99.90;;;;;;4894090;29;20490;-69
2024/04/01 06:49:17;;;;;;;35.37;32.27;;;10.40;99.90;;;;;;4883352;29;20455;-70
2024/04/01 06:51:44;;;;;;;37.70;34.50;;;10.40;99.90;;;;;;4879244;29;20482;-69
2024/04/01 06:54:11;;;;;;;36.90;33.77;;;10.50;99.90;;;;;;4878696;29;20451;-69
2024/04/01 06:56:37;;;;;;;40.13;36.43;;;10.40;99.90;;;;;;4879050;29;20945;-70
2024/04/01 06:59:04;;;;;;;42.43;38.60;;;10.50;99.90;;;;;;4878775;29;20453;-70
2024/04/01 07:01:31;;;;;;;41.10;37.50;;;10.50;99.90;;;;;;4878950;29;20511;-71
2024/04/01 07:03:58;;;;;;;40.53;36.60;;;10.50;99.90;;;;;;4878724;29;20572;-72
2024/04/01 07:06:25;;;;;;;44.20;40.40;;;10.50;99.90;;;;;;4878687;29;20961;-71
2024/04/01 07:08:53;;;;;;;38.47;34.80;;;10.50;99.90;;;;;;4893999;29;20450;-72
2024/04/01 07:11:19;;;;;;;38.40;35.17;;;10.50;99.90;;;;;;4878337;29;20561;-72
2024/04/01 07:13:46;;;;;;;37.27;34.07;;;10.50;99.90;;;;;;4878417;29;20454;-72
2024/04/01 07:16:13;;;;;;;39.00;35.30;;;10.50;99.90;;;;;;4878587;29;20462;-72
2024/04/01 07:18:40;;;;;;;42.10;37.90;;;10.50;99.90;;;;;;4878682;29;20486;-72
2024/04/01 07:21:06;;;;;;;42.70;38.63;;;10.50;99.90;;;;;;4878601;29;20801;-72
2024/04/01 07:23:35;;;;;;;38.17;34.57;;;10.50;99.90;;;;;;4878481;29;20482;-72
2024/04/01 07:26:01;;;;;;;42.10;38.20;;;10.50;99.90;;;;;;4879090;29;20453;-72
2024/04/01 07:28:28;;;;;;;41.40;37.60;;;10.50;99.90;;;;;;4879343;29;20457;-72
2024/04/01 07:31:03;;;;;;;40.53;36.70;;;10.50;99.90;;;;;;4878999;29;21000;-71
2024/04/01 07:33:30;;;;;;;42.67;38.80;;;10.50;99.90;;;;;;4879028;29;20433;-72
2024/04/01 07:35:56;;;;;;;40.90;37.40;;;10.50;99.90;;;;;;4878850;29;20450;-72
2024/04/01 07:38:23;;;;;;;41.77;38.00;;;10.50;99.90;;;;;;4878611;29;20488;-72
2024/04/01 07:40:51;;;;;;;42.40;38.50;;;10.50;99.90;;;;;;4862939;29;20968;-72
2024/04/01 07:43:18;;;;;;;42.37;38.40;;;10.50;99.90;;;;;;4878199;29;20995;-72
2024/04/01 07:45:45;;;;;;;39.23;35.50;;;10.50;99.90;;;;;;4877980;29;20450;-72
2024/04/01 07:48:13;;;;;;;46.13;41.80;;;10.50;99.90;;;;;;4877988;29;20450;-72
2024/04/01 07:50:44;;;;;;;44.57;40.60;;;10.50;99.90;;;;;;4877894;29;20454;-72
2024/04/01 07:53:12;;;;;;;43.37;39.20;;;10.50;99.90;;;;;;4877917;29;20508;-72
2024/04/01 07:55:38;;;;;;;42.27;38.47;;;10.50;99.90;;;;;;4878485;29;20453;-72
2024/04/01 07:58:07;;;;;;;43.40;39.50;;;10.50;99.90;;;;;;4878448;29;20458;-72
2024/04/01 08:00:35;;;;;;;42.07;38.20;;;10.50;99.90;;;;;;4878000;29;20450;-72
2024/04/01 08:03:03;;;;;;;41.60;37.57;;;10.60;99.90;;;;;;4877802;29;20486;-72
2024/04/01 08:05:29;;;;;;;42.37;38.63;;;10.50;99.90;;;;;;4878302;29;21004;-72
2024/04/01 08:07:56;;;;;;;43.27;39.20;;;10.60;99.90;;;;;;4881510;29;20814;-72
2024/04/01 08:10:22;;;;;;;46.53;42.47;;;10.50;99.90;;;;;;4881123;29;20474;-72
2024/04/01 08:12:50;;;;;;;47.33;43.03;;;10.50;99.90;;;;;;4881016;29;20473;-72
2024/04/01 08:15:17;;;;;;;50.40;45.60;;;10.50;99.90;;;;;;4880994;29;20567;-72
2024/04/01 08:17:45;;;;;;;48.00;43.60;;;10.50;99.90;;;;;;4881002;29;20458;-72
2024/04/01 08:20:11;;;;;;;52.93;48.20;;;10.50;99.90;;;;;;4880911;29;20447;-72
2024/04/01 08:22:38;;;;;;;50.67;46.07;;;10.50;99.90;;;;;;4881065;29;20474;-72
2024/04/01 08:25:05;;;;;;;53.00;48.30;;;10.50;99.90;;;;;;4880874;29;20992;-72
2024/04/01 08:27:32;;;;;;;50.00;45.60;;;10.50;99.90;;;;;;4881340;29;20450;-72
2024/04/01 08:29:58;;;;;;;50.03;45.50;;;10.50;99.90;;;;;;4880865;29;20450;-72
2024/04/01 08:32:27;;;;;;;49.33;44.97;;;10.50;99.90;;;;;;4880566;29;20481;-72
2024/04/01 08:34:53;;;;;;;52.83;48.07;;;10.50;99.90;;;;;;4880704;29;20949;-72
2024/04/01 08:37:21;;;;;;;47.50;43.30;;;10.50;99.90;;;;;;4880642;29;20945;-72
2024/04/01 08:39:47;;;;;;;49.27;44.67;;;10.50;99.90;;;;;;4880609;29;20454;-72
2024/04/01 08:42:19;;;;;;;55.10;50.27;;;10.60;99.90;;;;;;4880457;29;20478;-72
2024/04/01 08:44:47;;;;;;;60.30;54.47;;;10.60;99.90;;;;;;4896075;29;20562;-72
2024/04/01 08:47:16;;;;;;;60.23;54.80;;;10.60;99.90;;;;;;4880591;29;20446;-72
2024/04/01 08:49:52;;;;;;;51.30;46.53;;;10.60;99.90;;;;;;4880756;29;20856;-72
2024/04/01 08:52:26;;;;;;;47.70;43.60;;;10.70;99.90;;;;;;4880237;29;20984;-72
2024/04/01 08:54:53;;;;;;;50.20;45.93;;;10.70;99.90;;;;;;4880347;29;20457;-72
2024/04/01 08:57:21;;;;;;;50.93;46.53;;;10.70;99.90;;;;;;4880584;29;20450;-72
2024/04/01 08:59:49;;;;;;;48.70;44.50;;;10.70;99.90;;;;;;4880330;29;20956;-72
2024/04/01 09:02:16;;;;;;;46.90;42.97;;;10.70;99.90;;;;;;4880216;29;20553;-72
2024/04/01 09:04:43;;;;;;;48.70;44.50;;;10.70;99.90;;;;;;4880384;29;20473;-72
2024/04/01 09:07:14;;;;;;;47.50;43.30;;;10.70;99.90;;;;;;4880156;29;20470;-71
2024/04/01 09:09:40;;;;;;;46.97;42.83;;;10.70;99.90;;;;;;4880262;29;20445;-71
2024/04/01 09:12:09;;;;;;;43.40;39.80;;;10.70;99.90;;;;;;4879964;29;20565;-72
2024/04/01 09:14:35;;;;;;;45.63;41.73;;;10.70;99.90;;;;;;4880055;29;20462;-72
2024/04/01 09:17:03;;;;;;;44.03;40.13;;;10.80;99.90;;;;;;4879705;29;20446;-72
2024/04/01 09:19:29;;;;;;;48.93;44.93;;;10.80;99.90;;;;;;4880175;29;20450;-71
2024/04/01 09:22:01;;;;;;;53.03;48.73;;;10.80;99.90;;;;;;4880301;29;20474;-72
2024/04/01 09:24:27;;;;;;;46.70;42.63;;;10.80;99.90;;;;;;4879750;29;20851;-72
2024/04/01 09:26:55;;;;;;;45.17;41.43;;;10.80;99.90;;;;;;4880101;29;20450;-72
2024/04/01 09:29:21;;;;;;;41.73;38.37;;;10.80;99.90;;;;;;4879763;29;20514;-72
2024/04/01 09:31:49;;;;;;;38.93;35.63;;;10.90;99.90;;;;;;4879655;29;20466;-72
2024/04/01 09:34:16;;;;;;;40.37;36.97;;;10.90;99.90;;;;;;4895716;29;20875;-71
2024/04/01 09:36:44;;;;;;;47.67;43.80;;;10.90;99.90;;;;;;4879653;29;20465;-71
2024/04/01 09:39:13;;;;;;;43.53;40.07;;;10.90;99.90;;;;;;4864134;29;20454;-71
2024/04/01 09:41:40;;;;;;;44.03;40.33;;;10.90;99.90;;;;;;4879739;29;20867;-71
2024/04/01 09:44:09;;;;;;;42.37;38.87;;;10.90;99.90;;;;;;4879474;29;20485;-71
2024/04/01 09:46:38;;;;;;;43.80;40.33;;;10.90;99.90;;;;;;4879744;29;20450;-71
2024/04/01 09:49:05;;;;;;;42.30;38.90;;;10.90;99.90;;;;;;4879410;29;20459;-72
2024/04/01 09:51:34;;;;;;;43.27;39.87;;;10.90;99.90;;;;;;4879535;29;20481;-72
2024/04/01 09:54:01;;;;;;;41.83;38.50;;;11.00;99.90;;;;;;4879425;29;20474;-72
2024/04/01 09:57:21;;;;;;;42.33;38.87;;;10.90;99.90;;;;;;4879603;29;20450;-72
2024/04/01 10:00:09;;;;;;;42.00;38.47;;;11.00;99.90;;;;;;4879908;29;20533;-71
2024/04/01 10:03:17;;;;;;;39.77;36.47;;;11.00;99.90;;;;;;4879256;29;20478;-72
2024/04/01 10:06:15;;;;;;;39.80;36.60;;;11.00;99.90;;;;;;4879516;29;20442;-72
2024/04/01 10:09:26;;;;;;;38.80;35.57;;;11.00;99.90;;;;;;4894977;29;20789;-72
2024/04/01 10:12:26;;;;;;;39.40;36.30;;;11.00;99.90;;;;;;4879357;29;20581;-72
2024/04/01 10:15:32;;;;;;;38.30;35.27;;;11.00;99.90;;;;;;4879280;29;20473;-72
2024/04/01 10:18:22;;;;;;;38.30;35.10;;;11.00;99.90;;;;;;4878940;29;20532;-71
2024/04/01 10:21:11;;;;;;;37.30;34.30;;;11.00;99.90;;;;;;4878960;29;20494;-71
2024/04/01 10:24:13;;;;;;;40.53;37.20;;;11.00;99.90;;;;;;4879071;29;20477;-72
2024/04/01 10:27:08;;;;;;;40.43;36.90;;;11.10;99.90;;;;;;4882570;29;20461;-71
2024/04/01 10:30:17;;;;;;;40.03;36.93;;;11.10;99.90;;;;;;4878905;29;20465;-72
2024/04/01 10:33:32;;;;;;;38.00;34.90;;;11.10;99.90;;;;;;4810756;29;20536;-72
2024/04/01 10:36:07;;;;;;;36.27;33.37;;;11.10;99.90;;;;;;4783115;29;20475;-71
2024/04/01 10:39:26;;;;;;;38.30;35.20;;;11.10;99.90;;;;;;4857568;29;20891;-72
2024/04/01 10:42:30;;;;;;;40.73;37.23;;;11.10;99.90;;;;;;4822125;29;20520;-72
2024/04/01 10:45:36;;;;;;;40.20;36.97;;;11.10;99.90;;;;;;4878821;29;20505;-72
2024/04/01 10:48:20;;;;;;;39.63;36.60;;;11.20;99.90;;;;;;4879006;29;20438;-71
2024/04/01 10:51:19;;;;;;;41.50;38.13;;;11.20;99.90;;;;;;4879068;29;20439;-72
2024/04/01 10:53:58;;;;;;;37.77;34.77;;;11.20;99.90;;;;;;4878693;29;20461;-71
2024/04/01 10:56:55;;;;;;;38.83;35.80;;;11.30;99.90;;;;;;4879746;29;20496;-71
2024/04/01 10:59:55;;;;;;;41.40;37.80;;;11.30;99.90;;;;;;4878719;29;20447;-71
2024/04/01 11:03:07;;;;;;;38.97;35.87;;;11.30;99.90;;;;;;4873873;29;20482;-72
2024/04/01 11:06:23;;;;;;;37.60;34.70;;;11.30;99.90;;;;;;4809929;29;20618;-71
2024/04/01 11:09:02;;;;;;;39.03;35.77;;;11.30;99.90;;;;;;4878420;29;20458;-71
2024/04/01 11:11:39;;;;;;;36.80;33.83;;;11.30;99.90;;;;;;4894153;29;20473;-72
2024/04/01 11:14:07;;;;;;;37.97;34.67;;;11.40;99.90;;;;;;4878708;29;20440;-71
2024/04/01 11:16:37;;;;;;;36.83;33.93;;;11.40;99.90;;;;;;4878445;29;20512;-71
2024/04/01 11:19:33;;;;;;;40.03;36.93;;;11.40;99.90;;;;;;4878162;29;20447;-71
2024/04/01 11:22:02;;;;;;;37.70;34.70;;;11.50;99.90;;;;;;4878244;29;20477;-72
2024/04/01 11:24:43;;;;;;;37.33;34.43;;;11.50;99.90;;;;;;4878153;29;20484;-71
2024/04/01 11:27:42;;;;;;;37.80;34.80;;;11.50;99.90;;;;;;4878213;29;20487;-71
2024/04/01 11:30:23;;;;;;;36.63;33.83;;;11.50;99.90;;;;;;4867766;29;20465;-71
2024/04/01 11:32:55;;;;;;;35.57;32.50;;;11.50;99.90;;;;;;4878202;29;20893;-71
2024/04/01 11:35:39;;;;;;;36.87;33.90;;;11.50;99.90;;;;;;4878689;29;20442;-72
2024/04/01 11:38:20;;;;;;;36.20;33.20;;;11.60;99.90;;;;;;4862801;29;20454;-72
2024/04/01 11:40:50;;;;;;;34.63;31.83;;;11.60;99.90;;;;;;4880040;29;20442;-72
2024/04/01 11:43:19;;;;;;;34.87;32.17;;;11.60;99.90;;;;;;4881907;29;21000;-72
2024/04/01 11:45:48;;;;;;;35.97;33.00;;;11.60;99.90;;;;;;4881599;29;20501;-71
2024/04/01 11:48:16;;;;;;;34.90;32.10;;;11.60;99.90;;;;;;4881705;29;20446;-71
2024/04/01 11:50:51;;;;;;;35.03;32.30;;;11.60;99.90;;;;;;4882053;29;20846;-72
2024/04/01 11:53:18;;;;;;;34.13;31.40;;;11.70;99.90;;;;;;4881687;29;20497;-72
2024/04/01 11:55:52;;;;;;;34.77;32.07;;;11.70;99.90;;;;;;4881661;29;20453;-72
2024/04/01 11:58:19;;;;;;;35.60;32.63;;;11.70;99.90;;;;;;4865891;29;20541;-72
2024/04/01 12:00:51;;;;;;;34.20;31.60;;;11.70;99.90;;;;;;4881201;29;20458;-72
2024/04/01 12:03:19;;;;;;;36.07;33.23;;;11.70;99.90;;;;;;4881738;29;20474;-71
2024/04/01 12:05:48;;;;;;;37.13;34.20;;;11.70;99.90;;;;;;4882137;29;20568;-71
2024/04/01 12:08:19;;;;;;;33.87;31.17;;;11.80;99.90;;;;;;4881689;29;20836;-72
2024/04/01 12:10:47;;;;;;;35.80;32.90;;;11.80;99.90;;;;;;4881806;29;20449;-72
2024/04/01 12:13:15;;;;;;;34.87;32.13;;;11.80;99.90;;;;;;4881430;29;20485;-71
2024/04/01 12:15:43;;;;;;;36.17;33.17;;;11.80;99.90;;;;;;4881488;29;20548;-71
2024/04/01 12:18:11;;;;;;;34.67;31.77;;;11.80;99.90;;;;;;4881165;29;20450;-72
2024/04/01 12:20:39;;;;;;;36.53;33.57;;;11.80;99.90;;;;;;4881339;29;20458;-71
2024/04/01 12:23:07;;;;;;;35.88;32.97;;;11.90;99.90;;;;;;4880369;29;20541;-71
2024/04/01 12:25:37;;;;;;;31.50;28.97;;;11.90;99.90;;;;;;4880784;29;20218;-72
2024/04/01 12:28:04;;;;;;;32.67;30.00;;;12.00;99.90;;;;;;4881343;29;20446;-72
2024/04/01 12:30:36;;;;;;;35.93;32.83;;;12.00;99.90;;;;;;4881065;29;20458;-72
2024/04/01 12:33:03;;;;;;;34.10;31.23;;;12.00;99.90;;;;;;4881271;29;20840;-71
2024/04/01 12:35:32;;;;;;;33.37;30.67;;;12.00;99.90;;;;;;4865122;29;20502;-72
2024/04/01 12:38:03;;;;;;;34.07;31.40;;;12.00;99.90;;;;;;4880685;29;20537;-71
2024/04/01 12:40:42;;;;;;;33.53;30.73;;;12.10;99.90;;;;;;4880910;29;20439;-72
2024/04/01 12:43:13;;;;;;;33.67;31.03;;;12.10;99.90;;;;;;4880576;29;20976;-72
2024/04/01 12:45:42;;;;;;;32.23;29.50;;;12.10;99.90;;;;;;4880509;29;20518;-72